Terminal Aerodrome Forecast
Issued by NWS

Home | Current Version | Previous Version | Graphics & Text | Print | Product List | Glossary On
Versions: 1 2 3 4 5 6 7 8 9 10 11 12 13 14 15 16 17 18 19 20 21
000
FTUS43 KABR 181900 AAA
TAFMBG
TAF AMD
KMBG 181916Z 1819/1918 20009KT P6SM OVC150
     FM182115 29015G25KT 4SM -SHSN SCT035 OVC080
     FM190000 32016G29KT P6SM OVC020
     FM190900 32015KT P6SM BKN030=

USA.gov is the U.S. government's official web portal to all federal, state and local government web resources and services.